Time;durP1;ratioP1;P1;durP2;ratioP2;P2;SDS_P1;SDS_P2;PMS_P1;PMS_P2;Temp;Humidity;BMP_temperature;BMP_pressure;BME280_temperature;BME280_humidity;BME280_pressure;Samples;Min_cycle;Max_cycle;Signal;HPM_P1;HPM_P2
2021/03/24 00:02:11;;;;;;;12.05;7.97;;;2.40;80.50;;;;;;5046250;28;20111;-61
2021/03/24 00:04:37;;;;;;;13.45;9.13;;;2.40;80.70;;;;;;5034932;28;20492;-61
2021/03/24 00:07:03;;;;;;;12.43;8.63;;;2.40;80.70;;;;;;5033670;28;20017;-60
2021/03/24 00:09:29;;;;;;;14.60;9.00;;;2.30;80.60;;;;;;5033948;28;20091;-61
2021/03/24 00:11:54;;;;;;;10.63;7.78;;;2.30;80.60;;;;;;5033524;28;20029;-61
2021/03/24 00:14:20;;;;;;;11.90;8.55;;;2.30;80.80;;;;;;5033454;28;20373;-61
2021/03/24 00:16:47;;;;;;;11.95;8.60;;;2.30;80.80;;;;;;5039777;28;20021;-59
2021/03/24 00:19:12;;;;;;;16.17;9.48;;;2.30;81.10;;;;;;5053411;28;20024;-60
2021/03/24 00:21:38;;;;;;;12.00;8.07;;;2.30;81.10;;;;;;5040420;28;20458;-58
2021/03/24 00:24:05;;;;;;;11.93;8.13;;;2.30;81.10;;;;;;5033595;28;20028;-59
2021/03/24 00:26:31;;;;;;;12.13;8.90;;;2.30;81.20;;;;;;5036528;28;20037;-60
2021/03/24 00:28:58;;;;;;;13.43;9.50;;;2.30;81.30;;;;;;5049735;28;20456;-60
2021/03/24 00:31:23;;;;;;;13.93;9.48;;;2.30;81.50;;;;;;5046790;28;20099;-59
2021/03/24 00:33:50;;;;;;;14.27;9.20;;;2.20;81.50;;;;;;5051643;28;20056;-59
2021/03/24 00:36:16;;;;;;;14.25;9.77;;;2.20;81.80;;;;;;5045354;28;20095;-59
2021/03/24 00:38:42;;;;;;;13.63;9.82;;;2.20;81.90;;;;;;5051555;28;20357;-59
2021/03/24 00:41:08;;;;;;;14.73;9.70;;;2.10;82.20;;;;;;5047331;28;20025;-61
2021/03/24 00:43:33;;;;;;;11.85;8.63;;;2.10;82.40;;;;;;5039785;28;20029;-61
2021/03/24 00:45:59;;;;;;;14.90;9.68;;;2.10;82.50;;;;;;5049275;28;20017;-61
2021/03/24 00:48:28;;;;;;;14.65;9.32;;;2.10;82.70;;;;;;5047443;28;20021;-61
2021/03/24 00:50:55;;;;;;;11.88;9.10;;;2.10;83.00;;;;;;5043676;28;20373;-60
2021/03/24 00:53:21;;;;;;;14.93;9.57;;;2.10;83.00;;;;;;5044680;28;20039;-61
2021/03/24 00:55:48;;;;;;;11.70;8.60;;;2.10;83.20;;;;;;5042599;28;20028;-61
2021/03/24 00:58:15;;;;;;;12.43;8.95;;;2.10;83.20;;;;;;5046741;28;20018;-59
2021/03/24 01:00:41;;;;;;;13.05;8.77;;;2.10;83.20;;;;;;5033414;28;20026;-59
2021/03/24 01:03:08;;;;;;;13.43;8.85;;;2.10;83.40;;;;;;5032686;28;20052;-59
2021/03/24 01:05:33;;;;;;;12.82;8.85;;;2.10;83.50;;;;;;5033595;28;20033;-60
2021/03/24 01:08:23;;;;;;;12.60;8.55;;;2.10;83.50;;;;;;5033056;28;20026;-58
2021/03/24 01:10:51;;;;;;;14.23;9.32;;;2.10;83.30;;;;;;5033024;28;20460;-60
2021/03/24 01:13:18;;;;;;;11.85;8.32;;;2.10;83.40;;;;;;5048170;28;20030;-59
2021/03/24 01:15:44;;;;;;;14.20;8.90;;;2.00;83.40;;;;;;5033068;28;20032;-60
2021/03/24 01:18:11;;;;;;;14.18;9.15;;;2.00;83.40;;;;;;5035798;28;20060;-61
2021/03/24 01:20:39;;;;;;;13.13;9.13;;;2.10;83.60;;;;;;5033694;28;20108;-60
2021/03/24 01:23:05;;;;;;;13.90;8.60;;;2.00;83.30;;;;;;5032940;28;20057;-59
2021/03/24 01:25:31;;;;;;;11.30;8.52;;;2.00;83.50;;;;;;5036279;28;20543;-60
2021/03/24 01:27:57;;;;;;;11.73;8.77;;;2.00;83.80;;;;;;5052761;28;20033;-61
2021/03/24 01:30:28;;;;;;;13.45;9.43;;;2.00;83.70;;;;;;5051142;28;20029;-61
2021/03/24 01:32:55;;;;;;;12.38;8.70;;;2.00;83.70;;;;;;5032771;28;20100;-58
2021/03/24 01:35:21;;;;;;;14.18;8.95;;;2.00;83.70;;;;;;5048287;28;20366;-59
2021/03/24 01:37:48;;;;;;;12.40;9.10;;;2.00;84.00;;;;;;5033992;28;20044;-61
2021/03/24 01:40:27;;;;;;;13.63;8.25;;;2.00;83.60;;;;;;5036587;28;20044;-61
2021/03/24 01:43:02;;;;;;;12.20;8.57;;;2.00;83.70;;;;;;5036683;28;20037;-60
2021/03/24 01:45:28;;;;;;;14.38;9.20;;;2.00;83.90;;;;;;5046878;28;20037;-61
2021/03/24 01:47:55;;;;;;;13.60;8.77;;;2.00;83.80;;;;;;5040138;28;20108;-60
2021/03/24 01:50:30;;;;;;;10.07;7.65;;;2.00;83.90;;;;;;5036021;28;20037;-61
2021/03/24 01:52:55;;;;;;;14.23;9.07;;;2.00;84.50;;;;;;5036013;28;20096;-61
2021/03/24 01:55:22;;;;;;;13.35;8.82;;;2.00;83.80;;;;;;5035466;28;20028;-61
2021/03/24 01:57:47;;;;;;;11.77;8.25;;;2.00;83.60;;;;;;5068858;28;20108;-61
2021/03/24 02:00:18;;;;;;;11.18;8.05;;;2.00;83.60;;;;;;5036801;28;20060;-60
2021/03/24 02:02:43;;;;;;;12.25;8.60;;;2.00;84.00;;;;;;5035902;28;20072;-60
2021/03/24 02:05:10;;;;;;;13.38;8.65;;;2.00;84.20;;;;;;5036022;28;20448;-60
2021/03/24 02:07:49;;;;;;;11.65;7.60;;;1.90;83.70;;;;;;5035849;28;20033;-61
2021/03/24 02:10:25;;;;;;;11.73;8.40;;;2.00;83.60;;;;;;5042065;28;20101;-59
2021/03/24 02:12:59;;;;;;;11.98;8.52;;;2.00;83.70;;;;;;5036282;28;20037;-58
2021/03/24 02:15:32;;;;;;;14.52;8.80;;;2.00;83.80;;;;;;5041606;28;20087;-59
2021/03/24 02:18:00;;;;;;;11.43;7.93;;;2.00;83.80;;;;;;5045255;28;20376;-60
2021/03/24 02:20:39;;;;;;;9.60;7.05;;;1.90;84.30;;;;;;5045823;28;20041;-61
2021/03/24 02:23:27;;;;;;;9.40;7.22;;;1.90;83.50;;;;;;5041665;28;20469;-61
2021/03/24 02:26:03;;;;;;;11.13;8.00;;;1.90;83.50;;;;;;5046735;28;20036;-60
2021/03/24 02:28:32;;;;;;;12.00;8.20;;;1.90;83.70;;;;;;5041285;28;20029;-60
2021/03/24 02:30:58;;;;;;;12.38;8.45;;;1.90;83.60;;;;;;5041451;28;20109;-61
2021/03/24 02:33:27;;;;;;;11.35;8.32;;;1.90;83.80;;;;;;5048995;28;20096;-61
2021/03/24 02:35:59;;;;;;;10.45;7.43;;;1.90;83.70;;;;;;5035293;28;20021;-61
2021/03/24 02:38:26;;;;;;;11.55;7.55;;;1.90;83.70;;;;;;5049167;28;20025;-60
2021/03/24 02:40:54;;;;;;;11.38;8.07;;;1.90;83.70;;;;;;5045661;28;20033;-61
2021/03/24 02:43:21;;;;;;;11.60;8.40;;;1.90;83.50;;;;;;5038423;28;20060;-61
2021/03/24 02:45:48;;;;;;;10.68;7.32;;;1.90;83.50;;;;;;5043646;28;20508;-60
2021/03/24 02:48:24;;;;;;;10.30;7.32;;;1.90;83.50;;;;;;5040644;28;20415;-60
2021/03/24 02:50:53;;;;;;;10.10;7.38;;;1.90;83.70;;;;;;5046438;28;20041;-61
2021/03/24 02:53:20;;;;;;;11.07;7.90;;;1.90;83.80;;;;;;5033692;28;20461;-61
2021/03/24 02:55:46;;;;;;;11.77;8.10;;;1.90;83.50;;;;;;5048303;28;20469;-60
2021/03/24 02:58:12;;;;;;;12.18;8.27;;;1.90;83.60;;;;;;5044223;28;20060;-60
2021/03/24 03:00:39;;;;;;;10.20;6.93;;;1.90;83.50;;;;;;5047545;28;20037;-59
2021/03/24 03:03:12;;;;;;;10.95;7.55;;;1.90;83.60;;;;;;5044291;28;20049;-59
2021/03/24 03:05:39;;;;;;;9.90;7.65;;;1.90;84.10;;;;;;5036432;28;20022;-60
2021/03/24 03:08:14;;;;;;;10.68;7.53;;;1.90;83.50;;;;;;5044581;28;20076;-60
2021/03/24 03:10:57;;;;;;;11.48;7.22;;;1.90;83.60;;;;;;5040448;28;20468;-59
2021/03/24 03:13:41;;;;;;;10.00;6.55;;;1.90;83.50;;;;;;5043192;28;20021;-61
2021/03/24 03:16:09;;;;;;;12.70;8.27;;;1.90;83.60;;;;;;5034589;28;20107;-61
2021/03/24 03:19:04;;;;;;;8.68;6.95;;;1.90;83.40;;;;;;5035118;28;20022;-59
2021/03/24 03:21:44;;;;;;;12.75;8.35;;;1.90;83.30;;;;;;5037268;28;20045;-61
2021/03/24 03:24:11;;;;;;;11.10;7.78;;;1.90;83.40;;;;;;5036110;28;20099;-61
2021/03/24 03:26:40;;;;;;;11.93;7.05;;;1.80;83.40;;;;;;5036203;28;20098;-59
2021/03/24 03:29:13;;;;;;;11.65;7.40;;;1.80;83.60;;;;;;5038698;28;20032;-59
2021/03/24 03:31:42;;;;;;;11.50;8.02;;;1.80;83.60;;;;;;5043480;28;20025;-58
2021/03/24 03:34:10;;;;;;;10.02;7.60;;;1.80;83.60;;;;;;5042561;28;20037;-60
2021/03/24 03:36:40;;;;;;;11.30;7.47;;;1.80;83.60;;;;;;5052762;28;20044;-59
2021/03/24 03:39:11;;;;;;;12.75;8.85;;;1.80;83.60;;;;;;5054043;28;20571;-59
2021/03/24 03:41:37;;;;;;;12.73;8.23;;;1.80;83.60;;;;;;5037349;28;20020;-59
2021/03/24 03:44:05;;;;;;;13.07;8.10;;;1.80;83.70;;;;;;5046364;28;20103;-59
2021/03/24 03:46:35;;;;;;;11.95;7.80;;;1.80;84.00;;;;;;5036214;28;20044;-60
2021/03/24 03:49:01;;;;;;;11.15;7.80;;;1.80;83.90;;;;;;5036322;28;20030;-60
2021/03/24 03:51:36;;;;;;;10.85;8.00;;;1.80;84.00;;;;;;5038383;28;20021;-60
2021/03/24 03:54:09;;;;;;;10.95;7.25;;;1.80;83.90;;;;;;5034788;28;20029;-60
2021/03/24 03:56:48;;;;;;;13.32;7.95;;;1.80;83.90;;;;;;5038723;28;20029;-60
2021/03/24 03:59:36;;;;;;;11.10;8.15;;;1.80;84.10;;;;;;5034395;28;20025;-61
2021/03/24 04:02:05;;;;;;;12.32;8.27;;;1.70;84.00;;;;;;5040505;28;20041;-61
2021/03/24 04:04:40;;;;;;;12.43;8.45;;;1.70;83.80;;;;;;5042206;28;20112;-61
2021/03/24 04:07:15;;;;;;;12.80;7.85;;;1.80;84.30;;;;;;5042062;28;20101;-60
2021/03/24 04:09:41;;;;;;;12.65;8.35;;;1.70;83.90;;;;;;5035932;28;20171;-61
2021/03/24 04:12:12;;;;;;;11.13;7.95;;;1.80;83.60;;;;;;5037513;28;20457;-61
2021/03/24 04:14:39;;;;;;;12.80;8.32;;;1.70;83.40;;;;;;5035742;28;20025;-61
2021/03/24 04:17:07;;;;;;;12.30;8.35;;;1.70;83.70;;;;;;5037716;28;20024;-59
2021/03/24 04:19:39;;;;;;;9.52;7.05;;;1.70;83.80;;;;;;5039506;28;20027;-59
2021/03/24 04:22:05;;;;;;;12.48;8.32;;;1.80;83.80;;;;;;5041341;28;20029;-58
2021/03/24 04:24:38;;;;;;;10.98;7.65;;;1.80;83.90;;;;;;5047622;28;20034;-61
2021/03/24 04:27:07;;;;;;;11.15;8.13;;;1.80;83.70;;;;;;5045111;28;20025;-61
2021/03/24 04:29:35;;;;;;;12.38;7.68;;;1.80;83.40;;;;;;5039187;28;20111;-60
2021/03/24 04:32:03;;;;;;;11.43;7.38;;;1.80;83.40;;;;;;5043524;28;20453;-60
2021/03/24 04:34:29;;;;;;;11.20;7.93;;;1.80;83.30;;;;;;5041281;28;20029;-60
2021/03/24 04:37:28;;;;;;;11.40;7.88;;;1.80;83.20;;;;;;5047326;28;20037;-60
2021/03/24 04:40:06;;;;;;;11.25;7.30;;;1.80;83.40;;;;;;5052010;28;20055;-61
2021/03/24 04:43:12;;;;;;;12.45;7.85;;;1.80;83.50;;;;;;5040677;28;20409;-60
2021/03/24 04:45:46;;;;;;;10.05;7.18;;;1.90;83.70;;;;;;5033318;28;20030;-61
2021/03/24 04:48:23;;;;;;;11.45;7.50;;;1.80;83.70;;;;;;5047164;28;20384;-59
2021/03/24 04:51:09;;;;;;;12.80;8.15;;;1.80;83.60;;;;;;5044092;28;20475;-61
2021/03/24 04:54:10;;;;;;;13.70;7.25;;;1.80;83.90;;;;;;5039066;28;20057;-61
2021/03/24 04:56:39;;;;;;;10.23;7.50;;;1.80;84.00;;;;;;5035840;28;20481;-61
2021/03/24 04:59:06;;;;;;;9.98;7.30;;;1.80;84.10;;;;;;5041895;28;20021;-59
2021/03/24 05:01:48;;;;;;;9.57;7.20;;;1.80;84.30;;;;;;5036871;28;20551;-61
2021/03/24 05:04:27;;;;;;;10.40;7.88;;;1.80;84.50;;;;;;5033666;28;20055;-61
2021/03/24 05:07:00;;;;;;;9.68;6.78;;;1.90;84.30;;;;;;5047166;28;20025;-60
2021/03/24 05:09:26;;;;;;;12.25;7.88;;;1.90;84.00;;;;;;5042799;28;20114;-61
2021/03/24 05:12:12;;;;;;;11.02;7.70;;;1.90;84.00;;;;;;5038446;28;20053;-61
2021/03/24 05:14:43;;;;;;;14.07;8.77;;;1.90;83.80;;;;;;5046042;28;20021;-60
2021/03/24 05:17:38;;;;;;;10.50;7.72;;;1.90;83.90;;;;;;5050798;28;20021;-61
2021/03/24 05:20:35;;;;;;;12.27;7.70;;;1.90;83.60;;;;;;5035210;28;20033;-61
2021/03/24 05:23:04;;;;;;;11.52;7.70;;;1.80;83.70;;;;;;5050451;28;20083;-61
2021/03/24 05:25:43;;;;;;;12.40;8.15;;;1.80;83.90;;;;;;5055667;28;20047;-61
2021/03/24 05:28:25;;;;;;;12.00;7.63;;;1.80;84.10;;;;;;5050829;28;20025;-61
2021/03/24 05:31:05;;;;;;;11.77;7.82;;;1.80;84.10;;;;;;5050600;28;20059;-61
2021/03/24 05:33:37;;;;;;;11.32;7.53;;;1.80;84.10;;;;;;5040598;28;20544;-61
2021/03/24 05:36:13;;;;;;;10.25;7.25;;;1.80;84.20;;;;;;5050403;28;20043;-61
2021/03/24 05:38:44;;;;;;;11.48;7.32;;;1.90;84.20;;;;;;5044978;28;20131;-61
2021/03/24 05:41:30;;;;;;;9.77;7.25;;;1.80;84.10;;;;;;5042347;28;20030;-60
2021/03/24 05:44:08;;;;;;;12.23;7.65;;;1.80;84.50;;;;;;5046486;28;20413;-61
2021/03/24 05:47:09;;;;;;;11.82;8.75;;;1.90;84.60;;;;;;5050163;28;20028;-60
2021/03/24 05:49:44;;;;;;;8.90;6.05;;;1.90;84.30;;;;;;5050165;28;20025;-60
2021/03/24 05:52:29;;;;;;;11.65;7.28;;;1.80;84.30;;;;;;5043932;28;20080;-61
2021/03/24 05:55:07;;;;;;;11.80;6.63;;;1.80;84.50;;;;;;5042247;28;20048;-61
2021/03/24 05:58:11;;;;;;;10.20;7.20;;;1.80;84.80;;;;;;5047128;28;20092;-59
2021/03/24 06:00:47;;;;;;;9.32;6.75;;;1.90;84.90;;;;;;5047647;28;20028;-60
2021/03/24 06:03:43;;;;;;;9.32;6.03;;;1.90;85.10;;;;;;5049252;28;20048;-60
2021/03/24 06:06:34;;;;;;;13.15;8.05;;;1.90;85.30;;;;;;5049934;28;20045;-60
2021/03/24 06:09:20;;;;;;;10.75;6.45;;;2.00;85.30;;;;;;5050447;28;20101;-60
2021/03/24 06:12:11;;;;;;;10.65;6.93;;;2.10;85.30;;;;;;5048706;28;20033;-60
2021/03/24 06:15:05;;;;;;;9.60;6.82;;;2.10;84.90;;;;;;5037700;28;20032;-61
2021/03/24 06:17:44;;;;;;;9.55;6.60;;;2.20;84.60;;;;;;5047737;28;20053;-61
2021/03/24 06:20:48;;;;;;;11.63;7.75;;;2.20;84.60;;;;;;5043328;28;20024;-59
2021/03/24 06:23:17;;;;;;;9.00;6.63;;;2.20;84.50;;;;;;5013143;28;20037;-61
2021/03/24 06:25:51;;;;;;;9.35;6.50;;;2.30;84.10;;;;;;5015154;28;20370;-61
2021/03/24 06:28:19;;;;;;;9.18;6.80;;;2.30;84.30;;;;;;5039640;28;20441;-62
2021/03/24 06:30:51;;;;;;;10.45;6.38;;;2.30;84.20;;;;;;5054090;28;20036;-62
2021/03/24 06:33:31;;;;;;;10.80;7.03;;;2.40;84.10;;;;;;5054060;28;20502;-63
2021/03/24 06:36:15;;;;;;;10.43;7.20;;;2.50;83.60;;;;;;5053510;28;20025;-63
2021/03/24 06:38:58;;;;;;;10.05;6.90;;;2.50;83.40;;;;;;5042843;28;20369;-63
2021/03/24 06:41:42;;;;;;;9.38;6.97;;;2.50;84.10;;;;;;5045276;28;20151;-62
2021/03/24 06:44:38;;;;;;;10.05;6.40;;;2.60;83.20;;;;;;5038719;28;20031;-62
2021/03/24 06:47:16;;;;;;;10.30;7.35;;;2.60;83.20;;;;;;5046732;28;20025;-62
2021/03/24 06:50:03;;;;;;;9.30;6.65;;;2.70;82.90;;;;;;5041350;28;20029;-62
2021/03/24 06:52:28;;;;;;;11.93;7.57;;;2.70;82.70;;;;;;5039436;28;20030;-62
2021/03/24 06:55:12;;;;;;;11.75;7.35;;;2.60;82.60;;;;;;5035940;28;20087;-61
2021/03/24 06:57:59;;;;;;;10.02;7.07;;;2.60;82.00;;;;;;5032619;28;20417;-62
2021/03/24 07:00:39;;;;;;;10.80;6.68;;;2.60;82.30;;;;;;5035369;28;20112;-61
2021/03/24 07:03:27;;;;;;;11.18;6.65;;;2.60;82.30;;;;;;5037773;28;20490;-61
2021/03/24 07:06:07;;;;;;;10.90;7.05;;;2.70;82.00;;;;;;5037537;28;20080;-60
2021/03/24 07:08:33;;;;;;;10.70;7.00;;;2.80;82.00;;;;;;5035918;28;20061;-59
2021/03/24 07:11:29;;;;;;;10.15;6.85;;;2.80;81.50;;;;;;5038455;28;20056;-60
2021/03/24 07:13:58;;;;;;;12.38;7.50;;;2.90;81.60;;;;;;5035186;28;20036;-60
2021/03/24 07:16:26;;;;;;;11.02;7.60;;;2.90;81.10;;;;;;5029351;28;20041;-61
2021/03/24 07:19:10;;;;;;;10.63;6.30;;;3.00;80.70;;;;;;5031662;28;20361;-61
2021/03/24 07:22:13;;;;;;;10.38;6.68;;;3.10;80.90;;;;;;5034150;28;20112;-60
2021/03/24 07:25:08;;;;;;;9.68;6.72;;;3.10;80.80;;;;;;5036439;28;20362;-60
2021/03/24 07:27:57;;;;;;;11.75;8.57;;;3.20;79.90;;;;;;5035826;28;20029;-61
2021/03/24 07:30:48;;;;;;;13.43;7.90;;;3.20;79.80;;;;;;5035187;28;20033;-59
2021/03/24 07:33:32;;;;;;;12.32;7.82;;;3.20;79.50;;;;;;5036454;28;20040;-61
2021/03/24 07:36:36;;;;;;;12.00;7.90;;;3.30;79.10;;;;;;5037169;28;20139;-61
2021/03/24 07:39:18;;;;;;;13.02;8.18;;;3.30;79.00;;;;;;5032334;28;20054;-61
2021/03/24 07:42:12;;;;;;;11.48;8.38;;;3.40;78.80;;;;;;5036823;28;20108;-61
2021/03/24 07:45:21;;;;;;;9.95;7.20;;;3.40;78.60;;;;;;5033692;28;20103;-61
2021/03/24 07:48:11;;;;;;;11.63;7.82;;;3.50;78.70;;;;;;5025937;28;20045;-60
2021/03/24 07:50:46;;;;;;;10.98;6.70;;;3.60;78.00;;;;;;5028988;28;20025;-61
2021/03/24 07:53:29;;;;;;;10.60;7.90;;;3.60;78.20;;;;;;5032209;28;20037;-58
2021/03/24 07:56:09;;;;;;;8.75;6.80;;;3.70;78.00;;;;;;5027379;28;20117;-61
2021/03/24 07:58:54;;;;;;;12.02;7.95;;;3.80;77.60;;;;;;5030227;28;20035;-61
2021/03/24 08:01:41;;;;;;;12.82;8.45;;;3.90;77.50;;;;;;5032357;28;20033;-60
2021/03/24 08:04:43;;;;;;;11.15;7.47;;;3.90;76.60;;;;;;5032910;28;20115;-60
2021/03/24 08:07:21;;;;;;;11.90;7.60;;;4.00;76.20;;;;;;5028414;28;20112;-59
2021/03/24 08:09:58;;;;;;;9.75;7.20;;;4.00;76.40;;;;;;5029612;28;20100;-61
2021/03/24 08:12:54;;;;;;;11.95;8.43;;;4.10;76.60;;;;;;5029917;28;20140;-59
2021/03/24 08:15:38;;;;;;;9.68;7.47;;;4.20;76.10;;;;;;5021893;28;20148;-60
2021/03/24 08:18:14;;;;;;;13.50;8.10;;;4.20;76.30;;;;;;5025113;28;20143;-60
2021/03/24 08:21:20;;;;;;;10.68;6.93;;;4.40;75.80;;;;;;5029500;28;20060;-60
2021/03/24 08:24:07;;;;;;;10.15;7.03;;;4.40;75.60;;;;;;5033429;28;20135;-59
2021/03/24 08:26:33;;;;;;;10.48;7.53;;;4.40;75.30;;;;;;5030920;28;20070;-60
2021/03/24 08:29:20;;;;;;;12.15;8.52;;;4.40;74.70;;;;;;5026768;28;20477;-60
2021/03/24 08:32:14;;;;;;;9.70;7.13;;;4.50;74.60;;;;;;5025247;28;20029;-60
2021/03/24 08:34:59;;;;;;;10.18;7.00;;;4.50;74.60;;;;;;5022606;28;20061;-60
2021/03/24 08:37:48;;;;;;;11.82;7.97;;;4.50;74.40;;;;;;5026342;28;20048;-60
2021/03/24 08:40:36;;;;;;;11.23;7.38;;;4.50;74.70;;;;;;5026437;28;20022;-60
2021/03/24 08:43:14;;;;;;;9.65;6.63;;;4.50;74.60;;;;;;5027632;28;20030;-59
2021/03/24 08:45:49;;;;;;;10.65;8.10;;;4.60;74.80;;;;;;5028124;28;20033;-60
2021/03/24 08:48:24;;;;;;;9.05;6.57;;;4.60;74.40;;;;;;5021479;28;20101;-60
2021/03/24 08:51:00;;;;;;;8.82;6.72;;;4.60;74.50;;;;;;5031924;28;20028;-63
2021/03/24 08:53:44;;;;;;;10.25;7.72;;;4.70;74.20;;;;;;5032798;28;20435;-61
2021/03/24 08:56:35;;;;;;;10.45;7.03;;;4.70;74.00;;;;;;5029459;28;20036;-61
2021/03/24 08:59:09;;;;;;;10.77;7.15;;;4.80;73.80;;;;;;5029160;28;20041;-60
2021/03/24 09:02:07;;;;;;;8.07;6.20;;;4.80;74.20;;;;;;5025354;28;20128;-60
2021/03/24 09:04:52;;;;;;;11.18;8.15;;;4.90;74.00;;;;;;5034551;28;21755;-61
2021/03/24 09:07:24;;;;;;;10.65;6.93;;;4.90;73.50;;;;;;5033790;28;20477;-61
2021/03/24 09:09:49;;;;;;;;;;;4.90;73.50;;;;;;5035659;28;20029;-62
2021/03/24 09:12:30;;;;;;;9.60;6.40;;;4.90;73.00;;;;;;5032931;28;19923;-62
2021/03/24 09:15:14;;;;;;;9.27;6.43;;;5.00;73.30;;;;;;5033630;28;20535;-61
2021/03/24 09:17:52;;;;;;;9.95;7.25;;;5.10;72.80;;;;;;5034370;28;20256;-61
2021/03/24 09:20:42;;;;;;;11.00;7.38;;;5.10;72.30;;;;;;5028885;28;20032;-61
2021/03/24 09:23:32;;;;;;;10.95;7.07;;;5.20;71.50;;;;;;5030206;28;20032;-61
2021/03/24 09:26:12;;;;;;;10.95;7.72;;;5.20;71.60;;;;;;5031412;28;20564;-61
2021/03/24 09:29:06;;;;;;;10.27;7.10;;;5.20;71.60;;;;;;5024718;28;20029;-61
2021/03/24 09:31:59;;;;;;;9.57;6.63;;;5.20;71.80;;;;;;5019108;28;20882;-61
2021/03/24 09:34:42;;;;;;;11.70;7.55;;;5.30;71.50;;;;;;5031617;28;20052;-61
2021/03/24 09:37:11;;;;;;;10.65;7.32;;;5.30;71.10;;;;;;5032990;28;20556;-62
2021/03/24 09:39:54;;;;;;;8.98;6.78;;;5.30;70.40;;;;;;5030271;28;20044;-61
2021/03/24 09:42:37;;;;;;;10.55;7.53;;;5.40;70.20;;;;;;5031534;28;20051;-61
2021/03/24 09:45:17;;;;;;;9.88;6.75;;;5.40;70.10;;;;;;5033190;28;20060;-62
2021/03/24 09:48:14;;;;;;;10.13;7.18;;;5.30;69.70;;;;;;5035393;28;20531;-62
2021/03/24 09:51:09;;;;;;;9.70;6.70;;;5.40;69.30;;;;;;5035012;28;20025;-61
2021/03/24 09:53:41;;;;;;;11.43;7.22;;;5.40;69.30;;;;;;5025568;28;20080;-62
2021/03/24 09:56:12;;;;;;;;;;;5.50;69.20;;;;;;5030984;28;20148;-61
2021/03/24 09:59:01;;;;;;;7.82;5.85;;;5.40;68.60;;;;;;5030739;28;19909;-60
2021/03/24 10:01:39;;;;;;;8.75;6.70;;;5.50;69.10;;;;;;5033009;28;20037;-62
2021/03/24 10:04:14;;;;;;;10.07;6.80;;;5.50;68.60;;;;;;5033416;28;20025;-61
2021/03/24 10:07:18;;;;;;;9.48;7.00;;;5.50;68.50;;;;;;5022998;28;20038;-61
2021/03/24 10:10:14;;;;;;;9.95;6.30;;;5.60;68.40;;;;;;4966207;28;20053;-61
2021/03/24 10:12:53;;;;;;;7.90;5.82;;;5.60;68.30;;;;;;4969642;28;20681;-61
2021/03/24 10:15:31;;;;;;;8.02;6.05;;;5.60;68.00;;;;;;5016281;28;20563;-62
2021/03/24 10:18:16;;;;;;;8.60;6.65;;;5.60;68.30;;;;;;5027582;28;20107;-62
2021/03/24 10:20:44;;;;;;;9.38;6.50;;;5.60;67.70;;;;;;5029242;28;20396;-61
2021/03/24 10:23:25;;;;;;;9.55;6.45;;;5.60;67.60;;;;;;5027714;28;20064;-60
2021/03/24 10:26:08;;;;;;;9.90;6.65;;;5.50;67.90;;;;;;5032791;28;20029;-61
2021/03/24 10:28:40;;;;;;;9.35;6.78;;;5.50;67.90;;;;;;5031266;28;20052;-61
2021/03/24 10:31:35;;;;;;;10.35;7.13;;;5.60;67.70;;;;;;5032154;28;20470;-61
2021/03/24 10:34:28;;;;;;;8.68;6.68;;;5.60;66.80;;;;;;5026979;28;20127;-61
2021/03/24 10:37:28;;;;;;;9.93;7.22;;;5.60;67.30;;;;;;5026945;28;20037;-61
2021/03/24 10:40:06;;;;;;;9.70;6.93;;;5.60;66.70;;;;;;5024315;28;20057;-61
2021/03/24 10:42:48;;;;;;;9.60;6.88;;;5.70;67.00;;;;;;5030253;28;20522;-59
2021/03/24 10:45:44;;;;;;;9.57;6.78;;;5.80;67.20;;;;;;5025018;28;20368;-59
2021/03/24 10:48:31;;;;;;;9.00;6.70;;;5.90;67.70;;;;;;5028884;28;20080;-60
2021/03/24 10:51:00;;;;;;;8.65;6.82;;;6.00;66.50;;;;;;5028921;28;20100;-60
2021/03/24 10:53:33;;;;;;;9.25;6.65;;;6.10;65.60;;;;;;5028152;28;20028;-58
2021/03/24 10:56:27;;;;;;;8.55;6.05;;;6.10;65.20;;;;;;5029360;28;20079;-60
2021/03/24 10:58:54;;;;;;;8.75;6.18;;;6.20;65.10;;;;;;5031617;28;20547;-60
2021/03/24 11:01:50;;;;;;;7.88;5.95;;;6.30;66.20;;;;;;5026882;28;20454;-62
2021/03/24 11:04:43;;;;;;;9.30;7.10;;;6.30;65.30;;;;;;5024228;28;20045;-61
2021/03/24 11:07:52;;;;;;;8.60;6.47;;;6.40;64.50;;;;;;5029215;28;20091;-61
2021/03/24 11:10:42;;;;;;;7.32;6.07;;;6.40;64.10;;;;;;5027655;28;20032;-61
2021/03/24 11:13:20;;;;;;;8.30;6.78;;;6.40;63.80;;;;;;5033818;28;20028;-62
2021/03/24 11:15:53;;;;;;;9.65;6.80;;;6.40;63.40;;;;;;5031876;28;20029;-61
2021/03/24 11:18:26;;;;;;;8.70;6.32;;;6.40;63.70;;;;;;5034392;28;20040;-61
2021/03/24 11:20:55;;;;;;;8.20;6.20;;;6.40;63.80;;;;;;5030359;28;20055;-61
2021/03/24 11:23:26;;;;;;;8.65;6.07;;;6.40;63.80;;;;;;5028458;28;20033;-60
2021/03/24 11:25:58;;;;;;;8.52;6.20;;;6.50;64.00;;;;;;5033162;28;20036;-60
2021/03/24 11:28:31;;;;;;;9.57;7.07;;;6.50;64.00;;;;;;5030711;28;20037;-61
2021/03/24 11:31:15;;;;;;;9.63;6.85;;;6.50;63.90;;;;;;5032346;28;20107;-61
2021/03/24 11:34:04;;;;;;;10.95;7.85;;;6.60;62.90;;;;;;5035164;28;20037;-61
2021/03/24 11:36:37;;;;;;;9.20;6.90;;;6.60;63.40;;;;;;5031625;28;21263;-61
2021/03/24 11:39:23;;;;;;;8.18;6.78;;;6.60;63.60;;;;;;5028775;28;20112;-61
2021/03/24 11:41:50;;;;;;;9.30;6.85;;;6.60;63.60;;;;;;5033270;28;20029;-61
2021/03/24 11:44:23;;;;;;;10.10;7.65;;;6.70;63.90;;;;;;5029206;28;20033;-61
2021/03/24 11:46:50;;;;;;;8.50;6.85;;;6.70;63.10;;;;;;5031694;28;20036;-61
2021/03/24 11:49:31;;;;;;;10.63;8.02;;;6.70;63.90;;;;;;5030176;28;20167;-61
2021/03/24 11:52:05;;;;;;;9.65;7.38;;;6.60;63.70;;;;;;5034671;28;20029;-61
2021/03/24 11:54:33;;;;;;;10.02;8.43;;;6.60;63.40;;;;;;5033441;28;20025;-61
2021/03/24 11:57:02;;;;;;;10.02;7.82;;;6.60;63.30;;;;;;5033205;28;20029;-62
2021/03/24 11:59:55;;;;;;;10.90;7.88;;;6.60;63.20;;;;;;5025094;28;20493;-60
2021/03/24 12:02:57;;;;;;;8.93;7.07;;;6.50;63.20;;;;;;5023394;28;20063;-62
2021/03/24 12:05:44;;;;;;;12.20;8.85;;;6.60;63.50;;;;;;5026609;28;20033;-62
2021/03/24 12:08:34;;;;;;;10.82;8.18;;;6.50;63.30;;;;;;5031991;28;20033;-61
2021/03/24 12:11:30;;;;;;;11.32;8.57;;;6.50;63.50;;;;;;5033774;28;20040;-61
2021/03/24 12:14:10;;;;;;;11.07;8.27;;;6.50;63.40;;;;;;5015582;28;20041;-62
2021/03/24 12:17:03;;;;;;;11.07;7.97;;;6.50;63.30;;;;;;5031204;28;20036;-61
2021/03/24 12:19:37;;;;;;;11.02;8.18;;;6.50;63.30;;;;;;5027381;28;20091;-62
2021/03/24 12:22:18;;;;;;;8.82;7.03;;;6.50;63.60;;;;;;5030238;28;20021;-62
2021/03/24 12:24:45;;;;;;;10.50;7.47;;;6.60;63.80;;;;;;5029157;28;20110;-61
2021/03/24 12:27:14;;;;;;;11.20;7.45;;;6.60;63.50;;;;;;5032553;28;20029;-61
2021/03/24 12:29:43;;;;;;;10.57;7.50;;;6.70;63.70;;;;;;5029304;28;20557;-62
2021/03/24 12:32:23;;;;;;;9.50;6.78;;;6.80;63.60;;;;;;5030972;28;20026;-61
2021/03/24 12:34:49;;;;;;;9.23;6.72;;;6.80;63.40;;;;;;5034225;28;20528;-59
2021/03/24 12:37:37;;;;;;;8.80;7.00;;;6.90;63.20;;;;;;5031429;28;20085;-61
2021/03/24 12:40:23;;;;;;;8.82;6.93;;;6.90;62.80;;;;;;5032641;28;20017;-61
2021/03/24 12:42:50;;;;;;;8.27;6.47;;;6.90;62.40;;;;;;5026142;28;20392;-61
2021/03/24 12:45:32;;;;;;;7.35;6.50;;;6.80;62.40;;;;;;5021975;28;20091;-61
2021/03/24 12:48:14;;;;;;;7.88;6.10;;;6.80;62.30;;;;;;5025411;28;20049;-61
2021/03/24 12:50:59;;;;;;;7.82;5.75;;;6.80;62.90;;;;;;5025687;28;20037;-61
2021/03/24 12:53:49;;;;;;;8.30;5.80;;;6.80;62.50;;;;;;5024087;28;20061;-61
2021/03/24 12:56:39;;;;;;;9.93;5.90;;;6.80;62.50;;;;;;5026353;28;20091;-63
2021/03/24 12:59:26;;;;;;;6.75;5.00;;;6.80;61.50;;;;;;5027539;28;20037;-61
2021/03/24 13:02:23;;;;;;;8.55;5.90;;;6.80;62.00;;;;;;5023355;28;20124;-61
2021/03/24 13:05:02;;;;;;;6.13;5.05;;;6.80;61.80;;;;;;5028093;28;20750;-61
2021/03/24 13:07:47;;;;;;;5.47;4.72;;;6.90;62.20;;;;;;5022913;28;20036;-61
2021/03/24 13:10:40;;;;;;;7.40;5.25;;;6.90;62.20;;;;;;5017161;28;20036;-61
2021/03/24 13:13:19;;;;;;;7.43;4.85;;;6.90;61.70;;;;;;5025495;28;21731;-61
2021/03/24 13:16:01;;;;;;;7.90;5.15;;;6.90;61.60;;;;;;5025593;28;20461;-62
2021/03/24 13:18:43;;;;;;;8.30;4.70;;;6.90;60.90;;;;;;5025554;28;20044;-61
2021/03/24 13:21:53;;;;;;;5.32;4.30;;;6.90;60.80;;;;;;5027449;28;20078;-61
2021/03/24 13:24:33;;;;;;;4.90;4.13;;;6.90;61.20;;;;;;5025099;28;20490;-62
2021/03/24 13:27:16;;;;;;;5.95;3.85;;;6.90;60.70;;;;;;5025417;28;20087;-61
2021/03/24 13:29:54;;;;;;;6.30;4.60;;;6.90;60.20;;;;;;5021761;28;20060;-61
2021/03/24 13:32:33;;;;;;;5.95;4.78;;;6.90;60.10;;;;;;5025028;28;20189;-62
2021/03/24 13:35:16;;;;;;;5.45;4.13;;;6.80;59.90;;;;;;5028881;28;20029;-63
2021/03/24 13:37:42;;;;;;;5.85;4.43;;;6.80;60.20;;;;;;5024053;28;20053;-62
2021/03/24 13:40:22;;;;;;;6.07;4.38;;;6.80;60.10;;;;;;5025347;28;21334;-61
2021/03/24 13:43:08;;;;;;;7.00;4.63;;;6.80;60.00;;;;;;5032313;28;20178;-61
2021/03/24 13:45:47;;;;;;;7.47;4.40;;;6.70;60.00;;;;;;5030585;28;20358;-61
2021/03/24 13:48:17;;;;;;;5.57;4.47;;;6.70;59.80;;;;;;5030932;28;20024;-61